createdAt,value
2017-06-17T00:00:40.030Z,59.30
2017-06-17T00:03:07.522Z,59.30
2017-06-17T00:05:34.997Z,60.20
2017-06-17T00:08:02.534Z,60.00
2017-06-17T00:10:29.999Z,60.90
2017-06-17T00:12:57.459Z,61.40
2017-06-17T00:15:24.927Z,62.70
2017-06-17T00:17:53.152Z,62.60
2017-06-17T00:20:20.606Z,62.50
2017-06-17T00:22:48.098Z,63.00
2017-06-17T00:25:15.563Z,62.70
2017-06-17T00:27:43.023Z,62.90
2017-06-17T00:30:11.250Z,64.20
2017-06-17T00:32:38.713Z,64.20
2017-06-17T00:35:06.311Z,63.70
2017-06-17T00:37:33.770Z,63.90
2017-06-17T00:40:02.031Z,63.70
2017-06-17T00:42:29.497Z,63.50
2017-06-17T00:44:57.038Z,64.50
2017-06-17T00:47:24.598Z,64.00
2017-06-17T00:49:52.062Z,65.10
2017-06-17T00:52:19.539Z,64.50
2017-06-17T00:54:47.795Z,64.80
2017-06-17T00:57:15.258Z,64.80
2017-06-17T00:59:43.489Z,65.90
2017-06-17T01:02:10.958Z,65.70
2017-06-17T01:04:38.440Z,65.40
2017-06-17T01:07:05.917Z,64.80
2017-06-17T01:09:34.143Z,65.80
2017-06-17T01:12:01.603Z,65.80
2017-06-17T01:14:29.185Z,65.60
2017-06-17T01:16:56.641Z,65.00
2017-06-17T01:19:24.106Z,66.20
2017-06-17T01:21:52.363Z,66.70
2017-06-17T01:24:19.828Z,66.70
2017-06-17T01:26:47.287Z,67.60
2017-06-17T01:29:14.755Z,68.60
2017-06-17T01:31:42.989Z,69.60
2017-06-17T01:34:10.450Z,69.70
2017-06-17T01:36:37.918Z,69.50
2017-06-17T01:39:05.387Z,70.10
2017-06-17T01:41:32.846Z,69.30
2017-06-17T01:44:00.391Z,68.50
2017-06-17T01:46:27.867Z,68.10
2017-06-17T01:48:55.331Z,70.00
2017-06-17T01:51:23.575Z,70.20
2017-06-17T01:53:51.032Z,70.10
2017-06-17T01:56:18.502Z,68.00
2017-06-17T01:58:45.962Z,69.40
2017-06-17T02:01:14.195Z,69.60
2017-06-17T02:03:41.653Z,69.00
2017-06-17T02:06:09.122Z,69.40
2017-06-17T02:08:36.578Z,69.90
2017-06-17T02:11:04.043Z,70.60
2017-06-17T02:13:31.490Z,71.40
2017-06-17T02:15:58.963Z,70.50
2017-06-17T02:18:26.522Z,70.80
2017-06-17T02:21:08.859Z,73.10
2017-06-17T02:23:36.397Z,71.60
2017-06-17T02:26:03.863Z,73.70
2017-06-17T02:28:32.095Z,71.70
2017-06-17T02:30:59.581Z,71.70
2017-06-17T02:33:27.046Z,71.90
2017-06-17T02:35:55.293Z,73.20
2017-06-17T02:38:22.754Z,72.90
2017-06-17T02:40:50.210Z,75.40
2017-06-17T02:43:17.775Z,70.80
2017-06-17T02:45:45.630Z,70.40
2017-06-17T02:48:13.095Z,70.70
2017-06-17T02:50:40.654Z,71.00
2017-06-17T02:53:08.218Z,71.00
2017-06-17T02:55:35.688Z,72.90
2017-06-17T02:58:03.151Z,72.00
2017-06-17T03:00:31.370Z,72.80
2017-06-17T03:02:58.875Z,72.80
2017-06-17T03:05:27.105Z,75.40
2017-06-17T03:07:54.559Z,75.30
2017-06-17T03:10:22.030Z,75.00
2017-06-17T03:12:49.485Z,75.00
2017-06-17T03:15:16.950Z,76.00
2017-06-17T03:17:44.407Z,75.60
2017-06-17T03:20:11.970Z,76.80
2017-06-17T03:22:39.436Z,76.00
2017-06-17T03:25:06.995Z,76.10
2017-06-17T03:27:34.467Z,76.40
2017-06-17T03:30:01.937Z,78.00
2017-06-17T03:32:30.174Z,76.80
2017-06-17T03:34:57.740Z,76.70
2017-06-17T03:37:25.199Z,76.00
2017-06-17T03:39:52.662Z,77.20
2017-06-17T03:42:20.926Z,74.40
2017-06-17T03:44:48.479Z,74.20
2017-06-17T03:47:16.042Z,72.70
2017-06-17T03:49:43.602Z,73.00
2017-06-17T03:52:11.072Z,73.10
2017-06-17T03:54:39.299Z,73.60
2017-06-17T03:57:06.770Z,72.70
2017-06-17T03:59:34.235Z,72.40
2017-06-17T04:02:01.698Z,72.20
2017-06-17T04:04:29.163Z,72.50
2017-06-17T04:06:56.714Z,71.10
2017-06-17T04:09:24.175Z,70.20
2017-06-17T04:11:51.641Z,71.10
2017-06-17T04:14:19.106Z,68.60
2017-06-17T04:16:47.363Z,70.10
2017-06-17T04:19:14.839Z,69.30
2017-06-17T04:21:43.058Z,67.20
2017-06-17T04:24:10.526Z,67.80
2017-06-17T04:26:37.989Z,65.20
2017-06-17T04:29:05.574Z,60.50
2017-06-17T07:32:35.934Z,55.40
2017-06-17T07:35:03.387Z,53.80
2017-06-17T07:37:30.850Z,52.50
2017-06-17T07:39:58.325Z,52.30
2017-06-17T07:42:26.554Z,50.80
2017-06-17T07:44:54.014Z,50.80
2017-06-17T07:47:21.479Z,51.30
2017-06-17T07:49:49.046Z,49.00
2017-06-17T07:52:16.495Z,49.70
2017-06-17T07:54:43.954Z,49.50
2017-06-17T07:57:11.411Z,50.40
2017-06-17T07:59:38.879Z,52.20
2017-06-17T08:02:06.331Z,51.70
2017-06-17T08:04:33.790Z,47.10
2017-06-17T08:07:01.252Z,48.00
2017-06-17T08:09:28.699Z,47.60
2017-06-17T08:11:56.263Z,49.50
2017-06-17T08:14:23.727Z,50.00
2017-06-17T08:16:51.195Z,52.50
2017-06-17T08:19:19.418Z,46.90
2017-06-17T08:21:46.882Z,46.90
2017-06-17T08:24:14.372Z,48.50
2017-06-17T08:26:41.838Z,48.10
2017-06-17T08:29:10.053Z,49.00
2017-06-17T08:31:38.375Z,48.40
2017-06-17T08:34:05.838Z,47.80
2017-06-17T08:36:33.298Z,49.00
2017-06-17T08:39:01.527Z,48.00
2017-06-17T08:41:29.007Z,48.00
2017-06-17T08:43:56.468Z,47.80
2017-06-17T08:46:24.854Z,47.50
2017-06-17T08:48:52.322Z,47.80
2017-06-17T08:51:20.542Z,47.30
2017-06-17T08:53:48.011Z,47.20
2017-06-17T08:56:16.110Z,48.50
2017-06-17T08:58:43.577Z,48.60
2017-06-17T09:01:11.027Z,50.30
2017-06-17T09:03:39.258Z,46.10
2017-06-17T09:06:06.715Z,46.10
2017-06-17T09:08:34.193Z,49.10
2017-06-17T09:11:01.654Z,47.00
2017-06-17T09:13:29.225Z,46.80
2017-06-17T09:15:56.682Z,45.50
2017-06-17T09:18:24.134Z,45.40
2017-06-17T09:20:51.595Z,46.20
2017-06-17T09:23:19.054Z,45.70
2017-06-17T09:25:46.519Z,47.10
2017-06-17T09:28:13.970Z,45.50
2017-06-17T09:30:42.201Z,48.70
2017-06-17T09:33:09.654Z,48.20
2017-06-17T09:35:37.113Z,45.30
2017-06-17T09:38:04.602Z,45.00
2017-06-17T09:40:32.086Z,44.90
2017-06-17T09:43:00.305Z,45.50
2017-06-17T09:45:27.763Z,45.50
2017-06-17T09:47:55.239Z,45.00
2017-06-17T09:50:22.694Z,45.40
2017-06-17T09:52:50.162Z,45.80
2017-06-17T09:55:17.618Z,46.50
2017-06-17T09:57:45.082Z,47.80
2017-06-17T10:00:12.528Z,46.40
2017-06-17T10:02:40.016Z,46.00
2017-06-17T10:05:07.471Z,45.80
2017-06-17T10:07:35.002Z,45.90
2017-06-17T10:10:02.465Z,45.00
2017-06-17T10:12:29.922Z,46.00
2017-06-17T10:14:57.375Z,46.30
2017-06-17T10:17:24.830Z,46.20
2017-06-17T10:19:52.289Z,46.20
2017-06-17T10:22:20.520Z,46.40
2017-06-17T10:24:47.977Z,46.30
2017-06-17T10:27:15.468Z,45.50
2017-06-17T10:29:42.934Z,46.00
2017-06-17T10:32:11.195Z,47.40
2017-06-17T10:34:38.677Z,47.00
2017-06-17T10:37:06.898Z,44.50
2017-06-17T10:39:34.352Z,44.50
2017-06-17T10:42:01.810Z,45.60
2017-06-17T10:44:29.263Z,45.40
2017-06-17T10:46:56.718Z,46.20
2017-06-17T10:49:24.177Z,46.60
2017-06-17T10:51:51.670Z,43.70
2017-06-17T10:54:19.126Z,45.00
2017-06-17T10:56:46.590Z,45.50
2017-06-17T10:59:14.046Z,44.50
2017-06-17T11:01:41.524Z,44.60
2017-06-17T11:04:09.049Z,44.30
2017-06-17T11:06:36.507Z,44.70
2017-06-17T11:09:03.971Z,45.20
2017-06-17T11:11:31.424Z,43.80
2017-06-17T11:13:58.986Z,43.40
2017-06-17T11:16:26.544Z,44.70
2017-06-17T11:18:53.994Z,45.00
2017-06-17T11:21:21.453Z,45.30
2017-06-17T11:23:48.914Z,46.10
2017-06-17T11:26:16.463Z,45.10
2017-06-17T11:28:43.922Z,46.00
2017-06-17T11:31:11.372Z,44.90
2017-06-17T11:33:38.829Z,44.60
2017-06-17T11:36:06.383Z,45.00
2017-06-17T11:38:33.838Z,43.60
2017-06-17T11:41:01.299Z,44.90
2017-06-17T11:43:28.747Z,44.50
2017-06-17T11:45:56.318Z,44.70
2017-06-17T11:48:23.765Z,44.80
2017-06-17T11:50:51.329Z,44.90
2017-06-17T11:53:18.783Z,45.30
2017-06-17T11:55:46.258Z,45.80
2017-06-17T11:58:13.714Z,44.80
2017-06-17T12:00:41.958Z,44.40
2017-06-17T12:03:09.431Z,44.10
2017-06-17T12:05:36.891Z,44.10
2017-06-17T12:08:04.440Z,45.00
2017-06-17T12:10:31.907Z,44.10
2017-06-17T12:12:59.378Z,44.10
2017-06-17T12:15:27.594Z,45.50
2017-06-17T12:17:55.058Z,45.30
2017-06-17T12:20:22.526Z,44.80
2017-06-17T12:22:49.980Z,45.30
2017-06-17T12:25:17.435Z,45.80
2017-06-17T12:27:44.918Z,45.30
2017-06-17T12:30:12.375Z,47.70
2017-06-17T12:32:39.827Z,45.20
2017-06-17T12:35:07.399Z,46.30
2017-06-17T12:37:34.843Z,45.60
2017-06-17T12:40:02.310Z,45.00
2017-06-17T12:42:29.759Z,44.10
2017-06-17T12:44:57.226Z,43.40
2017-06-17T12:47:24.774Z,43.10
2017-06-17T12:49:52.242Z,42.80
2017-06-17T12:52:19.778Z,43.60
2017-06-17T12:54:47.242Z,44.40
2017-06-17T12:57:14.698Z,46.10
2017-06-17T12:59:42.182Z,44.80
2017-06-17T13:02:10.428Z,45.50
2017-06-17T13:04:37.887Z,45.60
2017-06-17T13:07:05.359Z,45.90
2017-06-17T13:09:33.616Z,45.80
2017-06-17T13:12:01.074Z,45.80
2017-06-17T13:14:28.531Z,47.00
2017-06-17T13:16:55.995Z,48.70
2017-06-17T13:19:23.543Z,48.70
2017-06-17T13:21:51.002Z,47.90
2017-06-17T13:24:18.550Z,47.40
2017-06-17T13:26:46.130Z,48.70
2017-06-17T13:29:14.354Z,49.20
2017-06-17T13:31:41.824Z,49.20
2017-06-17T13:34:09.270Z,48.00
2017-06-17T13:36:36.729Z,48.10
2017-06-17T13:39:04.217Z,48.30
2017-06-17T13:41:31.783Z,48.40
2017-06-17T13:43:59.246Z,47.50
2017-06-17T13:46:27.475Z,47.50
2017-06-17T13:48:54.932Z,47.50
2017-06-17T13:51:22.413Z,47.70
2017-06-17T13:53:49.875Z,48.30
2017-06-17T13:56:17.323Z,48.70
2017-06-17T13:58:44.893Z,49.10
2017-06-17T14:01:12.338Z,48.10
2017-06-17T14:03:39.802Z,47.60
2017-06-17T14:06:07.258Z,48.00
2017-06-17T14:08:34.733Z,47.30
2017-06-17T14:11:04.688Z,49.20
2017-06-17T14:13:32.190Z,48.70
2017-06-17T14:15:59.658Z,49.30
2017-06-17T14:18:27.202Z,47.90
2017-06-17T14:21:00.437Z,47.20
2017-06-17T14:23:27.954Z,47.50
2017-06-17T14:25:55.419Z,47.50
2017-06-17T14:28:22.862Z,48.10
2017-06-17T14:30:50.322Z,47.60
2017-06-17T14:33:17.778Z,47.30
2017-06-17T14:35:45.260Z,47.80
2017-06-17T14:38:13.488Z,48.30
2017-06-17T14:40:40.935Z,48.30
2017-06-17T14:43:08.403Z,48.40
2017-06-17T14:45:35.866Z,49.30
2017-06-17T14:48:03.441Z,49.00
2017-06-17T14:50:30.883Z,47.70
2017-06-17T14:52:58.346Z,48.80
2017-06-17T14:55:25.808Z,48.30
2017-06-17T14:57:53.264Z,48.00
2017-06-17T15:00:20.719Z,48.40
2017-06-17T15:02:48.204Z,48.20
2017-06-17T15:05:16.416Z,48.60
2017-06-17T15:07:43.870Z,48.50
2017-06-17T15:10:11.363Z,49.20
2017-06-17T15:12:38.819Z,48.00
2017-06-17T15:15:06.285Z,48.10
2017-06-17T15:17:33.743Z,48.10
2017-06-17T15:20:01.302Z,48.80
2017-06-17T15:22:28.748Z,49.40
2017-06-17T15:24:56.214Z,49.20
2017-06-17T15:27:23.671Z,49.90
2017-06-17T15:29:51.214Z,49.30
2017-06-17T15:32:18.671Z,49.90
2017-06-17T15:34:46.127Z,50.60
2017-06-17T15:37:13.599Z,50.20
2017-06-17T15:39:41.050Z,50.30
2017-06-17T15:42:08.520Z,52.50
2017-06-17T15:44:36.056Z,50.70
2017-06-17T15:47:03.518Z,50.30
2017-06-17T15:49:30.971Z,49.70
2017-06-17T15:51:58.528Z,49.40
2017-06-17T15:54:25.982Z,49.30
2017-06-17T15:56:53.443Z,49.20
2017-06-17T15:59:20.894Z,49.90
2017-06-17T16:01:48.351Z,50.00
2017-06-17T16:04:15.815Z,50.40
2017-06-17T16:06:43.358Z,50.30
2017-06-17T16:09:10.814Z,50.60
2017-06-17T16:11:38.279Z,50.50
2017-06-17T16:14:05.748Z,51.60
2017-06-17T16:16:33.966Z,51.10
2017-06-17T16:19:01.440Z,50.70
2017-06-17T16:21:28.887Z,51.10
2017-06-17T16:23:56.500Z,51.50
2017-06-17T16:26:24.719Z,51.40
2017-06-17T16:28:52.171Z,51.20
2017-06-17T16:31:19.670Z,51.40
2017-06-17T16:33:47.129Z,51.80
2017-06-17T16:36:14.590Z,52.00
2017-06-17T16:38:42.141Z,52.00
2017-06-17T16:41:09.608Z,52.60
2017-06-17T16:43:37.059Z,52.00
2017-06-17T16:46:04.602Z,52.00
2017-06-17T16:48:32.062Z,51.80
2017-06-17T16:50:59.527Z,52.20
2017-06-17T16:53:26.982Z,52.10
2017-06-17T16:55:54.466Z,52.50
2017-06-17T16:58:22.714Z,53.20
2017-06-17T17:00:50.167Z,53.10
2017-06-17T17:03:17.622Z,53.00
2017-06-17T17:05:45.080Z,53.30
2017-06-17T17:08:12.543Z,53.00
2017-06-17T17:10:40.508Z,53.20
2017-06-17T17:13:08.062Z,53.10
2017-06-17T17:15:35.520Z,53.80
2017-06-17T17:18:02.978Z,53.40
2017-06-17T17:20:30.431Z,53.90
2017-06-17T17:22:57.895Z,54.40
2017-06-17T17:25:25.346Z,54.50
2017-06-17T17:27:52.802Z,54.60
2017-06-17T17:30:20.358Z,54.80
2017-06-17T17:32:47.838Z,54.70
2017-06-17T17:35:16.058Z,55.30
2017-06-17T17:37:43.542Z,55.30
2017-06-17T17:40:11.002Z,55.30
2017-06-17T17:42:38.452Z,55.60
2017-06-17T17:45:06.021Z,55.60
2017-06-17T17:47:33.580Z,55.80
2017-06-17T17:50:01.034Z,55.90
2017-06-17T17:52:28.492Z,56.10
2017-06-17T17:54:56.047Z,56.50
2017-06-17T17:57:23.529Z,56.70
2017-06-17T17:59:51.782Z,57.50
2017-06-17T18:02:19.241Z,57.40
2017-06-17T18:04:46.703Z,57.50
2017-06-17T18:07:14.162Z,57.40
2017-06-17T18:09:41.613Z,57.70
2017-06-17T18:12:09.852Z,57.80
2017-06-17T18:14:37.339Z,57.80
2017-06-17T18:17:04.807Z,57.60
2017-06-17T18:19:33.034Z,57.80
2017-06-17T18:22:00.528Z,57.70
2017-06-17T18:24:27.979Z,58.00
2017-06-17T18:26:55.444Z,58.10
2017-06-17T18:29:22.906Z,58.40
2017-06-17T18:31:51.131Z,58.30
2017-06-17T18:34:18.584Z,58.20
2017-06-17T18:36:46.078Z,58.50
2017-06-17T18:39:13.543Z,58.60
2017-06-17T18:41:41.003Z,58.90
2017-06-17T18:44:08.554Z,59.00
2017-06-17T18:46:36.007Z,58.60
2017-06-17T18:49:03.469Z,59.50
2017-06-17T18:51:30.918Z,59.10
2017-06-17T18:53:58.386Z,59.30
2017-06-17T18:56:26.158Z,59.60
2017-06-17T18:58:54.394Z,60.80
2017-06-17T19:01:21.856Z,60.00
2017-06-17T19:03:49.427Z,60.20
2017-06-17T19:06:16.887Z,60.60
2017-06-17T19:08:44.350Z,61.20
2017-06-17T19:11:11.811Z,61.00
2017-06-17T19:13:40.038Z,61.50
2017-06-17T19:16:07.495Z,61.60
2017-06-17T19:18:34.948Z,61.00
2017-06-17T19:21:02.439Z,60.90
2017-06-17T19:23:29.903Z,61.40
2017-06-17T19:25:57.350Z,61.60
2017-06-17T19:28:24.802Z,61.80
2017-06-17T19:30:52.265Z,61.80
2017-06-17T19:33:19.722Z,62.10
2017-06-17T19:35:47.178Z,62.30
2017-06-17T19:38:14.634Z,63.00
2017-06-17T19:40:42.090Z,62.50
2017-06-17T19:43:09.651Z,62.10
2017-06-17T19:45:37.109Z,62.50
2017-06-17T19:48:04.563Z,62.70
2017-06-17T19:50:32.126Z,62.80
2017-06-17T19:52:59.587Z,63.00
2017-06-17T19:55:27.033Z,63.00
2017-06-17T19:57:54.500Z,62.70
2017-06-17T20:00:22.738Z,63.70
2017-06-17T20:02:50.207Z,63.10
2017-06-17T20:05:17.676Z,63.60
2017-06-17T20:07:45.130Z,63.40
2017-06-17T20:10:12.597Z,63.60
2017-06-17T20:12:40.042Z,64.00
2017-06-17T20:15:07.503Z,63.70
2017-06-17T20:17:34.966Z,63.80
2017-06-17T20:20:02.418Z,63.80
2017-06-17T20:22:35.527Z,63.80
2017-06-17T20:25:03.782Z,64.00
2017-06-17T20:27:31.238Z,64.00
2017-06-17T20:29:58.786Z,64.80
2017-06-17T20:32:26.242Z,64.30
2017-06-17T20:34:53.716Z,64.50
2017-06-17T20:37:21.162Z,64.80
2017-06-17T20:39:48.730Z,65.00
2017-06-17T20:42:16.974Z,64.30
2017-06-17T20:44:44.421Z,64.80
2017-06-17T20:47:11.890Z,65.10
2017-06-17T20:49:39.380Z,64.80
2017-06-17T20:52:07.638Z,65.10
2017-06-17T20:54:35.094Z,64.90
2017-06-17T20:57:02.563Z,65.00
2017-06-17T20:59:30.023Z,65.00
2017-06-17T21:01:57.565Z,65.20
2017-06-17T21:04:25.122Z,65.40
2017-06-17T21:06:52.583Z,65.50
2017-06-17T21:09:20.142Z,65.50
2017-06-17T21:11:47.599Z,65.90
2017-06-17T21:14:15.167Z,65.90
2017-06-17T21:16:42.619Z,65.60
2017-06-17T21:19:10.179Z,65.90
2017-06-17T21:21:37.736Z,65.70
2017-06-17T21:24:05.194Z,65.90
2017-06-17T21:26:32.654Z,65.90
2017-06-17T21:29:00.879Z,65.90
2017-06-17T21:31:28.330Z,65.90
2017-06-17T21:33:55.790Z,66.20
2017-06-17T21:36:23.254Z,66.40
2017-06-17T21:38:50.741Z,66.30
2017-06-17T21:41:18.198Z,66.20
2017-06-17T21:43:45.659Z,66.50
2017-06-17T21:46:13.127Z,66.40
2017-06-17T21:48:41.387Z,66.60
2017-06-17T21:51:08.847Z,66.30
2017-06-17T21:53:36.306Z,66.60
2017-06-17T21:56:03.763Z,66.70
2017-06-17T21:58:31.313Z,66.20
2017-06-17T22:03:11.663Z,66.20
2017-06-17T22:05:39.126Z,66.90
2017-06-17T22:08:06.579Z,66.90
2017-06-17T22:10:34.055Z,66.70
2017-06-17T22:13:02.838Z,66.50
2017-06-17T22:15:30.399Z,66.90
2017-06-17T22:17:57.857Z,67.10
2017-06-17T22:20:25.406Z,67.30
2017-06-17T22:22:52.870Z,67.70
2017-06-17T22:25:20.323Z,66.90
2017-06-17T22:27:47.784Z,66.90
2017-06-17T22:30:15.339Z,67.40
2017-06-17T22:32:42.810Z,68.00
2017-06-17T22:35:10.262Z,68.30
2017-06-17T22:37:37.727Z,68.50
2017-06-17T22:40:05.989Z,69.00
2017-06-17T22:42:33.549Z,69.00
2017-06-17T22:45:01.005Z,69.40
2017-06-17T22:47:28.553Z,69.50
2017-06-17T22:49:56.014Z,69.00
2017-06-17T22:52:23.571Z,69.30
2017-06-17T22:54:51.043Z,68.80
2017-06-17T22:57:19.305Z,68.90
2017-06-17T22:59:46.867Z,68.80
2017-06-17T23:02:14.318Z,69.00
2017-06-17T23:04:41.878Z,68.90
2017-06-17T23:07:09.338Z,68.80
2017-06-17T23:09:36.803Z,69.20
2017-06-17T23:12:05.037Z,69.70
2017-06-17T23:14:32.527Z,69.40
2017-06-17T23:16:59.982Z,69.50
2017-06-17T23:19:27.438Z,69.80
2017-06-17T23:21:54.902Z,70.00
2017-06-17T23:24:22.351Z,70.30
2017-06-17T23:26:49.910Z,70.90
2017-06-17T23:29:17.475Z,71.40
2017-06-17T23:31:45.027Z,71.30
2017-06-17T23:34:12.491Z,71.40
2017-06-17T23:36:39.954Z,71.60
2017-06-17T23:39:08.210Z,71.90
2017-06-17T23:41:35.694Z,71.90
2017-06-17T23:44:03.238Z,72.90
2017-06-17T23:46:31.459Z,72.20
2017-06-17T23:48:58.925Z,71.30
2017-06-17T23:51:26.414Z,71.60
2017-06-17T23:53:53.975Z,71.30
2017-06-17T23:56:21.430Z,71.60
2017-06-17T23:58:48.896Z,72.10
